sensor_id;sensor_type;location;lat;lon;timestamp;P1;durP1;ratioP1;P2;durP2;ratioP2
20593;SDS011;10455;48.732;10.266;2023-11-19T00:01:37;58.10;;;38.83;;
20593;SDS011;10455;48.732;10.266;2023-11-19T00:06:39;64.80;;;39.47;;
20593;SDS011;10455;48.732;10.266;2023-11-19T00:11:41;63.53;;;41.10;;
20593;SDS011;10455;48.732;10.266;2023-11-19T00:16:44;63.93;;;40.47;;
20593;SDS011;10455;48.732;10.266;2023-11-19T00:21:46;65.63;;;39.23;;
20593;SDS011;10455;48.732;10.266;2023-11-19T00:26:48;58.13;;;38.80;;
20593;SDS011;10455;48.732;10.266;2023-11-19T00:31:51;64.80;;;39.03;;
20593;SDS011;10455;48.732;10.266;2023-11-19T00:36:53;65.10;;;37.40;;
20593;SDS011;10455;48.732;10.266;2023-11-19T00:41:56;62.13;;;37.20;;
20593;SDS011;10455;48.732;10.266;2023-11-19T00:46:59;59.70;;;37.53;;
20593;SDS011;10455;48.732;10.266;2023-11-19T00:52:01;64.23;;;37.60;;
20593;SDS011;10455;48.732;10.266;2023-11-19T00:57:03;56.37;;;37.33;;
20593;SDS011;10455;48.732;10.266;2023-11-19T01:02:07;63.63;;;37.57;;
20593;SDS011;10455;48.732;10.266;2023-11-19T01:07:09;60.53;;;36.40;;
20593;SDS011;10455;48.732;10.266;2023-11-19T01:12:12;70.53;;;39.67;;
20593;SDS011;10455;48.732;10.266;2023-11-19T01:17:16;68.27;;;37.30;;
20593;SDS011;10455;48.732;10.266;2023-11-19T01:22:17;55.40;;;34.80;;
20593;SDS011;10455;48.732;10.266;2023-11-19T01:27:20;64.63;;;36.13;;
20593;SDS011;10455;48.732;10.266;2023-11-19T01:32:23;63.37;;;34.50;;
20593;SDS011;10455;48.732;10.266;2023-11-19T01:37:25;61.90;;;32.43;;
20593;SDS011;10455;48.732;10.266;2023-11-19T01:42:27;78.20;;;36.03;;
20593;SDS011;10455;48.732;10.266;2023-11-19T01:47:30;51.87;;;27.27;;
20593;SDS011;10455;48.732;10.266;2023-11-19T01:52:32;57.60;;;26.93;;
20593;SDS011;10455;48.732;10.266;2023-11-19T01:57:37;57.67;;;27.33;;
20593;SDS011;10455;48.732;10.266;2023-11-19T02:02:42;50.77;;;24.57;;
20593;SDS011;10455;48.732;10.266;2023-11-19T02:07:46;57.53;;;24.63;;
20593;SDS011;10455;48.732;10.266;2023-11-19T02:12:50;52.90;;;25.60;;
20593;SDS011;10455;48.732;10.266;2023-11-19T02:17:53;60.40;;;27.97;;
20593;SDS011;10455;48.732;10.266;2023-11-19T02:22:55;49.63;;;23.60;;
20593;SDS011;10455;48.732;10.266;2023-11-19T02:27:59;44.73;;;22.77;;
20593;SDS011;10455;48.732;10.266;2023-11-19T02:33:03;50.77;;;23.57;;
20593;SDS011;10455;48.732;10.266;2023-11-19T02:38:06;44.87;;;23.40;;
20593;SDS011;10455;48.732;10.266;2023-11-19T02:43:10;53.73;;;23.10;;
20593;SDS011;10455;48.732;10.266;2023-11-19T02:48:13;45.20;;;21.83;;
20593;SDS011;10455;48.732;10.266;2023-11-19T02:53:16;44.33;;;21.47;;
20593;SDS011;10455;48.732;10.266;2023-11-19T02:58:19;44.50;;;21.73;;
20593;SDS011;10455;48.732;10.266;2023-11-19T03:03:23;42.93;;;20.73;;
20593;SDS011;10455;48.732;10.266;2023-11-19T03:08:28;40.40;;;18.83;;
20593;SDS011;10455;48.732;10.266;2023-11-19T03:13:32;39.33;;;19.70;;
20593;SDS011;10455;48.732;10.266;2023-11-19T03:18:33;38.93;;;17.47;;
20593;SDS011;10455;48.732;10.266;2023-11-19T03:23:35;38.23;;;18.53;;
20593;SDS011;10455;48.732;10.266;2023-11-19T03:28:41;38.83;;;19.33;;
20593;SDS011;10455;48.732;10.266;2023-11-19T03:33:43;37.77;;;19.03;;
20593;SDS011;10455;48.732;10.266;2023-11-19T03:38:45;45.27;;;19.30;;
20593;SDS011;10455;48.732;10.266;2023-11-19T03:43:48;41.90;;;19.30;;
20593;SDS011;10455;48.732;10.266;2023-11-19T03:48:50;42.03;;;16.23;;
20593;SDS011;10455;48.732;10.266;2023-11-19T03:53:52;17.17;;;6.37;;
20593;SDS011;10455;48.732;10.266;2023-11-19T03:58:55;0.70;;;0.70;;
20593;SDS011;10455;48.732;10.266;2023-11-19T04:03:57;0.70;;;0.70;;
20593;SDS011;10455;48.732;10.266;2023-11-19T04:08:59;0.70;;;0.70;;
20593;SDS011;10455;48.732;10.266;2023-11-19T04:14:03;0.70;;;0.70;;
20593;SDS011;10455;48.732;10.266;2023-11-19T04:19:05;0.70;;;0.70;;
20593;SDS011;10455;48.732;10.266;2023-11-19T04:24:07;0.70;;;0.70;;
20593;SDS011;10455;48.732;10.266;2023-11-19T04:29:14;0.73;;;0.73;;
20593;SDS011;10455;48.732;10.266;2023-11-19T04:34:17;0.70;;;0.70;;
20593;SDS011;10455;48.732;10.266;2023-11-19T04:39:19;0.70;;;0.70;;
20593;SDS011;10455;48.732;10.266;2023-11-19T04:44:22;0.80;;;0.80;;
20593;SDS011;10455;48.732;10.266;2023-11-19T04:49:24;0.80;;;0.80;;
20593;SDS011;10455;48.732;10.266;2023-11-19T04:54:27;0.80;;;0.80;;
20593;SDS011;10455;48.732;10.266;2023-11-19T04:59:30;0.70;;;0.70;;
20593;SDS011;10455;48.732;10.266;2023-11-19T05:04:33;0.77;;;0.77;;
20593;SDS011;10455;48.732;10.266;2023-11-19T05:09:37;0.70;;;0.70;;
20593;SDS011;10455;48.732;10.266;2023-11-19T05:14:41;0.70;;;0.70;;
20593;SDS011;10455;48.732;10.266;2023-11-19T05:19:48;0.60;;;0.60;;
20593;SDS011;10455;48.732;10.266;2023-11-19T05:24:50;0.70;;;0.70;;
20593;SDS011;10455;48.732;10.266;2023-11-19T05:29:53;0.80;;;0.80;;
20593;SDS011;10455;48.732;10.266;2023-11-19T05:34:55;0.70;;;0.70;;
20593;SDS011;10455;48.732;10.266;2023-11-19T05:39:57;0.70;;;0.70;;
20593;SDS011;10455;48.732;10.266;2023-11-19T05:45:05;0.80;;;0.80;;
20593;SDS011;10455;48.732;10.266;2023-11-19T05:50:08;0.80;;;0.80;;
20593;SDS011;10455;48.732;10.266;2023-11-19T05:55:11;0.70;;;0.70;;
20593;SDS011;10455;48.732;10.266;2023-11-19T06:00:15;0.70;;;0.70;;
20593;SDS011;10455;48.732;10.266;2023-11-19T06:05:18;0.80;;;0.80;;
20593;SDS011;10455;48.732;10.266;2023-11-19T06:10:19;0.80;;;0.80;;
20593;SDS011;10455;48.732;10.266;2023-11-19T06:15:23;0.80;;;0.80;;
20593;SDS011;10455;48.732;10.266;2023-11-19T06:20:25;0.80;;;0.80;;
20593;SDS011;10455;48.732;10.266;2023-11-19T06:25:28;0.63;;;0.63;;
20593;SDS011;10455;48.732;10.266;2023-11-19T06:30:31;0.60;;;0.60;;
20593;SDS011;10455;48.732;10.266;2023-11-19T06:35:33;0.70;;;0.70;;
20593;SDS011;10455;48.732;10.266;2023-11-19T06:40:37;0.60;;;0.60;;
20593;SDS011;10455;48.732;10.266;2023-11-19T06:45:41;0.80;;;0.80;;
20593;SDS011;10455;48.732;10.266;2023-11-19T06:50:43;0.70;;;0.70;;
20593;SDS011;10455;48.732;10.266;2023-11-19T06:55:45;0.73;;;0.73;;
20593;SDS011;10455;48.732;10.266;2023-11-19T07:00:48;0.80;;;0.80;;
20593;SDS011;10455;48.732;10.266;2023-11-19T07:05:51;0.70;;;0.70;;
20593;SDS011;10455;48.732;10.266;2023-11-19T07:10:53;0.70;;;0.70;;
20593;SDS011;10455;48.732;10.266;2023-11-19T07:15:56;0.70;;;0.70;;
20593;SDS011;10455;48.732;10.266;2023-11-19T07:20:58;0.70;;;0.70;;
20593;SDS011;10455;48.732;10.266;2023-11-19T07:26:01;0.80;;;0.80;;
20593;SDS011;10455;48.732;10.266;2023-11-19T07:31:07;0.80;;;0.80;;
20593;SDS011;10455;48.732;10.266;2023-11-19T07:36:09;0.73;;;0.73;;
20593;SDS011;10455;48.732;10.266;2023-11-19T07:41:11;0.80;;;0.80;;
20593;SDS011;10455;48.732;10.266;2023-11-19T07:46:14;0.73;;;0.73;;
20593;SDS011;10455;48.732;10.266;2023-11-19T07:51:16;0.60;;;0.60;;
20593;SDS011;10455;48.732;10.266;2023-11-19T07:56:18;0.70;;;0.70;;
20593;SDS011;10455;48.732;10.266;2023-11-19T08:01:21;0.60;;;0.60;;
20593;SDS011;10455;48.732;10.266;2023-11-19T08:06:23;1.37;;;1.37;;
20593;SDS011;10455;48.732;10.266;2023-11-19T08:11:26;0.70;;;0.70;;
20593;SDS011;10455;48.732;10.266;2023-11-19T08:16:29;0.80;;;0.80;;
20593;SDS011;10455;48.732;10.266;2023-11-19T08:21:31;0.77;;;0.77;;
20593;SDS011;10455;48.732;10.266;2023-11-19T08:26:33;0.67;;;0.67;;
20593;SDS011;10455;48.732;10.266;2023-11-19T08:31:36;0.70;;;0.70;;
20593;SDS011;10455;48.732;10.266;2023-11-19T08:36:38;0.70;;;0.70;;
20593;SDS011;10455;48.732;10.266;2023-11-19T08:41:40;0.73;;;0.73;;
20593;SDS011;10455;48.732;10.266;2023-11-19T08:46:47;0.73;;;0.73;;
20593;SDS011;10455;48.732;10.266;2023-11-19T08:51:50;0.70;;;0.70;;
20593;SDS011;10455;48.732;10.266;2023-11-19T08:56:51;0.60;;;0.60;;
20593;SDS011;10455;48.732;10.266;2023-11-19T09:01:55;0.90;;;0.90;;
20593;SDS011;10455;48.732;10.266;2023-11-19T09:06:57;0.70;;;0.70;;
20593;SDS011;10455;48.732;10.266;2023-11-19T09:11:59;0.80;;;0.80;;
20593;SDS011;10455;48.732;10.266;2023-11-19T09:17:05;0.70;;;0.70;;
20593;SDS011;10455;48.732;10.266;2023-11-19T09:22:06;0.77;;;0.77;;
20593;SDS011;10455;48.732;10.266;2023-11-19T09:27:08;0.63;;;0.63;;
20593;SDS011;10455;48.732;10.266;2023-11-19T09:32:12;0.65;;;0.65;;
20593;SDS011;10455;48.732;10.266;2023-11-19T09:37:14;0.70;;;0.70;;
20593;SDS011;10455;48.732;10.266;2023-11-19T09:42:16;0.80;;;0.80;;
20593;SDS011;10455;48.732;10.266;2023-11-19T09:47:20;0.80;;;0.80;;
20593;SDS011;10455;48.732;10.266;2023-11-19T09:52:22;0.80;;;0.80;;
20593;SDS011;10455;48.732;10.266;2023-11-19T09:57:24;0.80;;;0.80;;
20593;SDS011;10455;48.732;10.266;2023-11-19T10:02:28;0.90;;;0.90;;
20593;SDS011;10455;48.732;10.266;2023-11-19T10:07:35;0.75;;;0.75;;
20593;SDS011;10455;48.732;10.266;2023-11-19T10:12:37;0.85;;;0.85;;
20593;SDS011;10455;48.732;10.266;2023-11-19T10:17:41;0.80;;;0.80;;
20593;SDS011;10455;48.732;10.266;2023-11-19T10:22:43;0.95;;;0.95;;
20593;SDS011;10455;48.732;10.266;2023-11-19T10:27:45;0.90;;;0.90;;
20593;SDS011;10455;48.732;10.266;2023-11-19T10:33:00;0.80;;;0.80;;
20593;SDS011;10455;48.732;10.266;2023-11-19T10:38:13;0.90;;;0.90;;
20593;SDS011;10455;48.732;10.266;2023-11-19T10:43:16;0.90;;;0.90;;
20593;SDS011;10455;48.732;10.266;2023-11-19T10:48:19;0.80;;;0.80;;
20593;SDS011;10455;48.732;10.266;2023-11-19T10:53:23;0.80;;;0.80;;
20593;SDS011;10455;48.732;10.266;2023-11-19T10:58:26;0.80;;;0.80;;
20593;SDS011;10455;48.732;10.266;2023-11-19T11:03:31;0.90;;;0.90;;
20593;SDS011;10455;48.732;10.266;2023-11-19T11:08:40;0.90;;;0.90;;
20593;SDS011;10455;48.732;10.266;2023-11-19T11:13:43;0.90;;;0.90;;
20593;SDS011;10455;48.732;10.266;2023-11-19T11:18:48;0.85;;;0.85;;
20593;SDS011;10455;48.732;10.266;2023-11-19T11:24:09;1.00;;;1.00;;
20593;SDS011;10455;48.732;10.266;2023-11-19T11:29:37;0.90;;;0.90;;
20593;SDS011;10455;48.732;10.266;2023-11-19T11:34:48;0.90;;;0.90;;
20593;SDS011;10455;48.732;10.266;2023-11-19T11:40:02;1.00;;;1.00;;
20593;SDS011;10455;48.732;10.266;2023-11-19T11:45:10;1.00;;;1.00;;
20593;SDS011;10455;48.732;10.266;2023-11-19T11:50:15;0.90;;;0.90;;
20593;SDS011;10455;48.732;10.266;2023-11-19T11:55:18;1.00;;;1.00;;
20593;SDS011;10455;48.732;10.266;2023-11-19T12:00:21;1.92;;;1.25;;
20593;SDS011;10455;48.732;10.266;2023-11-19T12:05:25;1.20;;;1.10;;
20593;SDS011;10455;48.732;10.266;2023-11-19T12:10:29;1.10;;;1.10;;
20593;SDS011;10455;48.732;10.266;2023-11-19T12:15:33;1.48;;;1.20;;
20593;SDS011;10455;48.732;10.266;2023-11-19T12:20:56;2.38;;;2.17;;
20593;SDS011;10455;48.732;10.266;2023-11-19T12:26:00;1.42;;;1.33;;
20593;SDS011;10455;48.732;10.266;2023-11-19T12:31:07;1.30;;;1.30;;
20593;SDS011;10455;48.732;10.266;2023-11-19T12:36:11;1.73;;;1.63;;
20593;SDS011;10455;48.732;10.266;2023-11-19T12:41:13;2.85;;;1.73;;
20593;SDS011;10455;48.732;10.266;2023-11-19T12:46:21;1.58;;;1.48;;
20593;SDS011;10455;48.732;10.266;2023-11-19T12:51:31;1.40;;;1.30;;
20593;SDS011;10455;48.732;10.266;2023-11-19T12:56:33;1.60;;;1.50;;
20593;SDS011;10455;48.732;10.266;2023-11-19T13:01:36;1.55;;;1.30;;
20593;SDS011;10455;48.732;10.266;2023-11-19T13:06:45;1.55;;;1.30;;
20593;SDS011;10455;48.732;10.266;2023-11-19T13:11:47;1.50;;;1.40;;
20593;SDS011;10455;48.732;10.266;2023-11-19T13:16:49;3.75;;;1.50;;
20593;SDS011;10455;48.732;10.266;2023-11-19T13:21:53;1.70;;;1.60;;
20593;SDS011;10455;48.732;10.266;2023-11-19T13:26:55;1.20;;;1.20;;
20593;SDS011;10455;48.732;10.266;2023-11-19T13:31:58;2.65;;;1.40;;
20593;SDS011;10455;48.732;10.266;2023-11-19T13:37:01;1.33;;;1.33;;
20593;SDS011;10455;48.732;10.266;2023-11-19T13:42:04;1.73;;;1.58;;
20593;SDS011;10455;48.732;10.266;2023-11-19T13:47:06;2.17;;;1.95;;
20593;SDS011;10455;48.732;10.266;2023-11-19T13:52:11;1.50;;;1.40;;
20593;SDS011;10455;48.732;10.266;2023-11-19T13:57:13;1.90;;;1.80;;
20593;SDS011;10455;48.732;10.266;2023-11-19T14:02:15;1.75;;;1.65;;
20593;SDS011;10455;48.732;10.266;2023-11-19T14:07:18;1.73;;;1.63;;
20593;SDS011;10455;48.732;10.266;2023-11-19T14:12:20;2.35;;;1.55;;
20593;SDS011;10455;48.732;10.266;2023-11-19T14:17:22;2.78;;;1.77;;
20593;SDS011;10455;48.732;10.266;2023-11-19T14:22:26;2.45;;;1.70;;
20593;SDS011;10455;48.732;10.266;2023-11-19T14:27:29;2.00;;;1.80;;
20593;SDS011;10455;48.732;10.266;2023-11-19T14:32:31;1.70;;;1.60;;
20593;SDS011;10455;48.732;10.266;2023-11-19T14:37:34;2.92;;;2.08;;
20593;SDS011;10455;48.732;10.266;2023-11-19T14:42:36;2.60;;;2.40;;
20593;SDS011;10455;48.732;10.266;2023-11-19T14:47:39;2.33;;;2.03;;
20593;SDS011;10455;48.732;10.266;2023-11-19T14:52:42;4.47;;;3.45;;
20593;SDS011;10455;48.732;10.266;2023-11-19T14:57:44;3.38;;;3.08;;
20593;SDS011;10455;48.732;10.266;2023-11-19T15:02:46;6.40;;;5.53;;
20593;SDS011;10455;48.732;10.266;2023-11-19T15:07:50;43.78;;;10.20;;
20593;SDS011;10455;48.732;10.266;2023-11-19T15:12:52;2.70;;;2.50;;
20593;SDS011;10455;48.732;10.266;2023-11-19T15:17:54;2.20;;;2.00;;
20593;SDS011;10455;48.732;10.266;2023-11-19T15:22:58;1.95;;;1.83;;
20593;SDS011;10455;48.732;10.266;2023-11-19T15:28:00;2.40;;;2.20;;
20593;SDS011;10455;48.732;10.266;2023-11-19T15:33:02;4.67;;;3.97;;
20593;SDS011;10455;48.732;10.266;2023-11-19T15:38:05;5.93;;;3.77;;
20593;SDS011;10455;48.732;10.266;2023-11-19T15:43:10;6.23;;;4.23;;
20593;SDS011;10455;48.732;10.266;2023-11-19T15:48:12;3.30;;;3.10;;
20593;SDS011;10455;48.732;10.266;2023-11-19T15:53:16;7.07;;;4.90;;
20593;SDS011;10455;48.732;10.266;2023-11-19T15:58:18;4.93;;;3.80;;
20593;SDS011;10455;48.732;10.266;2023-11-19T16:03:20;5.20;;;3.50;;
20593;SDS011;10455;48.732;10.266;2023-11-19T16:08:24;5.83;;;4.17;;
20593;SDS011;10455;48.732;10.266;2023-11-19T16:13:26;6.67;;;4.73;;
20593;SDS011;10455;48.732;10.266;2023-11-19T16:18:28;2.77;;;2.40;;
20593;SDS011;10455;48.732;10.266;2023-11-19T16:23:31;2.20;;;2.10;;
20593;SDS011;10455;48.732;10.266;2023-11-19T16:28:33;3.10;;;2.90;;
20593;SDS011;10455;48.732;10.266;2023-11-19T16:33:35;3.80;;;2.60;;
20593;SDS011;10455;48.732;10.266;2023-11-19T16:38:38;3.23;;;2.93;;
20593;SDS011;10455;48.732;10.266;2023-11-19T16:43:40;2.87;;;2.57;;
20593;SDS011;10455;48.732;10.266;2023-11-19T16:48:44;3.97;;;2.30;;
20593;SDS011;10455;48.732;10.266;2023-11-19T16:53:49;2.33;;;2.13;;
20593;SDS011;10455;48.732;10.266;2023-11-19T16:58:51;2.70;;;2.40;;
20593;SDS011;10455;48.732;10.266;2023-11-19T17:03:53;2.47;;;2.10;;
20593;SDS011;10455;48.732;10.266;2023-11-19T17:08:56;2.40;;;2.20;;
20593;SDS011;10455;48.732;10.266;2023-11-19T17:13:58;2.60;;;2.37;;
20593;SDS011;10455;48.732;10.266;2023-11-19T17:19:00;2.60;;;2.20;;
20593;SDS011;10455;48.732;10.266;2023-11-19T17:24:03;5.10;;;4.57;;
20593;SDS011;10455;48.732;10.266;2023-11-19T17:29:06;3.23;;;2.30;;
20593;SDS011;10455;48.732;10.266;2023-11-19T17:34:08;3.40;;;2.27;;
20593;SDS011;10455;48.732;10.266;2023-11-19T17:39:11;4.60;;;2.20;;
20593;SDS011;10455;48.732;10.266;2023-11-19T17:44:15;7.63;;;4.87;;
20593;SDS011;10455;48.732;10.266;2023-11-19T17:49:17;4.30;;;3.87;;
20593;SDS011;10455;48.732;10.266;2023-11-19T17:54:20;3.20;;;2.90;;
20593;SDS011;10455;48.732;10.266;2023-11-19T17:59:22;2.20;;;2.10;;
20593;SDS011;10455;48.732;10.266;2023-11-19T18:04:25;2.97;;;2.20;;
20593;SDS011;10455;48.732;10.266;2023-11-19T18:09:28;2.90;;;2.37;;
20593;SDS011;10455;48.732;10.266;2023-11-19T18:14:30;2.60;;;2.40;;
20593;SDS011;10455;48.732;10.266;2023-11-19T18:19:32;4.40;;;4.00;;
20593;SDS011;10455;48.732;10.266;2023-11-19T18:24:35;4.57;;;4.20;;
20593;SDS011;10455;48.732;10.266;2023-11-19T18:29:37;4.10;;;3.70;;
20593;SDS011;10455;48.732;10.266;2023-11-19T18:34:40;4.40;;;4.00;;
20593;SDS011;10455;48.732;10.266;2023-11-19T18:39:43;7.57;;;5.50;;
20593;SDS011;10455;48.732;10.266;2023-11-19T18:44:45;4.57;;;4.27;;
20593;SDS011;10455;48.732;10.266;2023-11-19T18:49:47;4.97;;;4.70;;
20593;SDS011;10455;48.732;10.266;2023-11-19T18:54:52;4.50;;;4.20;;
20593;SDS011;10455;48.732;10.266;2023-11-19T18:59:54;5.00;;;4.50;;
20593;SDS011;10455;48.732;10.266;2023-11-19T19:04:56;4.90;;;4.50;;
20593;SDS011;10455;48.732;10.266;2023-11-19T19:10:00;4.90;;;4.57;;
20593;SDS011;10455;48.732;10.266;2023-11-19T19:15:02;5.00;;;4.70;;
20593;SDS011;10455;48.732;10.266;2023-11-19T19:20:05;4.27;;;3.93;;
20593;SDS011;10455;48.732;10.266;2023-11-19T19:25:11;4.87;;;4.57;;
20593;SDS011;10455;48.732;10.266;2023-11-19T19:30:14;4.87;;;4.40;;
20593;SDS011;10455;48.732;10.266;2023-11-19T19:35:16;6.10;;;5.67;;
20593;SDS011;10455;48.732;10.266;2023-11-19T19:40:19;5.07;;;4.67;;
20593;SDS011;10455;48.732;10.266;2023-11-19T19:45:21;4.90;;;4.57;;
20593;SDS011;10455;48.732;10.266;2023-11-19T19:50:23;7.27;;;4.50;;
20593;SDS011;10455;48.732;10.266;2023-11-19T19:55:26;4.57;;;4.27;;
20593;SDS011;10455;48.732;10.266;2023-11-19T20:00:30;4.67;;;4.40;;
20593;SDS011;10455;48.732;10.266;2023-11-19T20:05:32;6.80;;;6.50;;
20593;SDS011;10455;48.732;10.266;2023-11-19T20:10:35;7.23;;;6.73;;
20593;SDS011;10455;48.732;10.266;2023-11-19T20:15:37;5.17;;;4.60;;
20593;SDS011;10455;48.732;10.266;2023-11-19T20:20:39;5.63;;;4.20;;
20593;SDS011;10455;48.732;10.266;2023-11-19T20:25:43;7.60;;;5.47;;
20593;SDS011;10455;48.732;10.266;2023-11-19T20:30:45;6.27;;;4.90;;
20593;SDS011;10455;48.732;10.266;2023-11-19T20:35:47;5.37;;;4.83;;
20593;SDS011;10455;48.732;10.266;2023-11-19T20:40:50;7.27;;;4.77;;
20593;SDS011;10455;48.732;10.266;2023-11-19T20:45:53;5.30;;;4.80;;
20593;SDS011;10455;48.732;10.266;2023-11-19T20:50:54;4.57;;;4.17;;
20593;SDS011;10455;48.732;10.266;2023-11-19T20:55:58;7.40;;;4.03;;
20593;SDS011;10455;48.732;10.266;2023-11-19T21:01:00;5.30;;;3.53;;
20593;SDS011;10455;48.732;10.266;2023-11-19T21:06:03;8.70;;;5.10;;
20593;SDS011;10455;48.732;10.266;2023-11-19T21:11:09;9.23;;;3.83;;
20593;SDS011;10455;48.732;10.266;2023-11-19T21:16:11;9.60;;;4.90;;
20593;SDS011;10455;48.732;10.266;2023-11-19T21:21:13;11.00;;;4.30;;
20593;SDS011;10455;48.732;10.266;2023-11-19T21:26:16;10.63;;;4.20;;
20593;SDS011;10455;48.732;10.266;2023-11-19T21:31:18;8.80;;;5.00;;
20593;SDS011;10455;48.732;10.266;2023-11-19T21:36:20;14.70;;;4.90;;
20593;SDS011;10455;48.732;10.266;2023-11-19T21:41:26;13.50;;;5.83;;
20593;SDS011;10455;48.732;10.266;2023-11-19T21:46:27;9.37;;;3.77;;
20593;SDS011;10455;48.732;10.266;2023-11-19T21:51:29;14.27;;;3.63;;
20593;SDS011;10455;48.732;10.266;2023-11-19T21:56:33;15.77;;;4.00;;
20593;SDS011;10455;48.732;10.266;2023-11-19T22:01:35;10.60;;;3.90;;
20593;SDS011;10455;48.732;10.266;2023-11-19T22:06:36;18.50;;;5.70;;
20593;SDS011;10455;48.732;10.266;2023-11-19T22:11:40;13.23;;;3.53;;
20593;SDS011;10455;48.732;10.266;2023-11-19T22:16:42;12.20;;;4.50;;
20593;SDS011;10455;48.732;10.266;2023-11-19T22:21:45;16.47;;;4.27;;
20593;SDS011;10455;48.732;10.266;2023-11-19T22:26:48;9.30;;;3.80;;
20593;SDS011;10455;48.732;10.266;2023-11-19T22:31:50;9.23;;;4.00;;
20593;SDS011;10455;48.732;10.266;2023-11-19T22:36:52;11.43;;;3.53;;
20593;SDS011;10455;48.732;10.266;2023-11-19T22:41:56;12.03;;;3.53;;
20593;SDS011;10455;48.732;10.266;2023-11-19T22:46:58;10.80;;;3.60;;
20593;SDS011;10455;48.732;10.266;2023-11-19T22:52:01;10.37;;;4.03;;
20593;SDS011;10455;48.732;10.266;2023-11-19T22:57:04;15.13;;;3.87;;
20593;SDS011;10455;48.732;10.266;2023-11-19T23:02:06;9.83;;;3.50;;
20593;SDS011;10455;48.732;10.266;2023-11-19T23:07:08;9.37;;;3.43;;
20593;SDS011;10455;48.732;10.266;2023-11-19T23:12:12;10.30;;;3.20;;
20593;SDS011;10455;48.732;10.266;2023-11-19T23:17:16;9.30;;;3.67;;
20593;SDS011;10455;48.732;10.266;2023-11-19T23:22:18;10.73;;;3.13;;
20593;SDS011;10455;48.732;10.266;2023-11-19T23:27:21;13.67;;;3.83;;
20593;SDS011;10455;48.732;10.266;2023-11-19T23:32:23;8.97;;;3.33;;
20593;SDS011;10455;48.732;10.266;2023-11-19T23:37:25;10.90;;;3.57;;
20593;SDS011;10455;48.732;10.266;2023-11-19T23:42:28;18.40;;;3.40;;
20593;SDS011;10455;48.732;10.266;2023-11-19T23:47:30;13.00;;;3.90;;
20593;SDS011;10455;48.732;10.266;2023-11-19T23:52:32;10.17;;;3.77;;
20593;SDS011;10455;48.732;10.266;2023-11-19T23:57:36;7.77;;;3.33;;
